createdAt,value
2018-09-24T00:00:31.367Z,100949.00
2018-09-24T00:03:00.701Z,100958.00
2018-09-24T00:05:29.894Z,100975.00
2018-09-24T00:07:59.154Z,100960.00
2018-09-24T00:10:28.318Z,100972.00
2018-09-24T00:12:57.466Z,100970.00
2018-09-24T00:15:26.597Z,100968.00
2018-09-24T00:17:55.673Z,100972.00
2018-09-24T00:20:24.754Z,100983.00
2018-09-24T00:22:53.845Z,100995.00
2018-09-24T00:25:22.900Z,100991.00
2018-09-24T00:27:51.938Z,100994.00
2018-09-24T00:30:21.039Z,100994.00
2018-09-24T00:32:50.181Z,101001.00
2018-09-24T00:37:56.881Z,100996.00
2018-09-24T00:40:26.025Z,100997.00
2018-09-24T00:42:55.146Z,101004.00
2018-09-24T00:45:24.212Z,101007.00
2018-09-24T00:47:53.395Z,101014.00
2018-09-24T00:50:38.443Z,101017.00
2018-09-24T00:53:07.830Z,101017.00
2018-09-24T00:55:37.078Z,101016.00
2018-09-24T00:58:06.773Z,101024.00
2018-09-24T01:00:36.849Z,101016.00
2018-09-24T01:03:06.055Z,101019.00
2018-09-24T01:05:35.147Z,101027.00
2018-09-24T01:08:04.294Z,101040.00
2018-09-24T01:10:33.421Z,101035.00
2018-09-24T01:13:02.474Z,101046.00
2018-09-24T01:15:31.645Z,101043.00
2018-09-24T01:18:00.697Z,101049.00
2018-09-24T01:20:29.809Z,101063.00
2018-09-24T01:25:38.039Z,101048.00
2018-09-24T01:28:07.238Z,101058.00
2018-09-24T01:30:36.259Z,101067.00
2018-09-24T01:33:05.484Z,101063.00
2018-09-24T01:35:34.553Z,101069.00
2018-09-24T01:38:03.623Z,101069.00
2018-09-24T01:40:33.297Z,101069.00
2018-09-24T01:43:03.665Z,101068.00
2018-09-24T01:45:32.903Z,101081.00
2018-09-24T01:48:02.025Z,101076.00
2018-09-24T01:50:31.090Z,101096.00
2018-09-24T01:53:05.019Z,101100.00
2018-09-24T01:55:34.143Z,101102.00
2018-09-24T01:58:03.284Z,101107.00
2018-09-24T02:00:32.359Z,101121.00
2018-09-24T02:03:01.572Z,101124.00
2018-09-24T02:05:30.693Z,101120.00
2018-09-24T02:07:59.814Z,101131.00
2018-09-24T02:10:28.928Z,101123.00
2018-09-24T02:12:58.568Z,101129.00
2018-09-24T02:15:32.271Z,101134.00
2018-09-24T02:18:01.596Z,101143.00
2018-09-24T02:20:30.700Z,101146.00
2018-09-24T02:22:59.913Z,101153.00
2018-09-24T02:25:29.071Z,101141.00
2018-09-24T02:27:58.204Z,101143.00
2018-09-24T02:30:27.446Z,101164.00
2018-09-24T02:32:56.755Z,101164.00
2018-09-24T02:35:25.990Z,101179.00
2018-09-24T02:37:55.386Z,101176.00
2018-09-24T02:40:25.305Z,101180.00
2018-09-24T02:42:54.560Z,101188.00
2018-09-24T02:45:24.238Z,101183.00
2018-09-24T02:47:53.553Z,101187.00
2018-09-24T02:50:31.790Z,101193.00
2018-09-24T02:53:00.940Z,101193.00
2018-09-24T02:55:30.992Z,101203.00
2018-09-24T02:58:00.271Z,101202.00
2018-09-24T03:00:29.573Z,101215.00
2018-09-24T03:02:58.671Z,101219.00
2018-09-24T03:05:27.872Z,101229.00
2018-09-24T03:07:57.026Z,101233.00
2018-09-24T03:10:26.121Z,101233.00
2018-09-24T03:12:59.762Z,101235.00
2018-09-24T03:15:36.160Z,101235.00
2018-09-24T03:18:05.627Z,101233.00
2018-09-24T03:20:38.509Z,101230.00
2018-09-24T03:23:07.934Z,101225.00
2018-09-24T03:26:01.006Z,101234.00
2018-09-24T03:28:30.076Z,101247.00
2018-09-24T03:30:59.095Z,101251.00
2018-09-24T03:33:29.123Z,101261.00
2018-09-24T03:35:58.262Z,101247.00
2018-09-24T03:38:27.277Z,101249.00
2018-09-24T03:40:56.330Z,101255.00
2018-09-24T03:43:25.365Z,101252.00
2018-09-24T03:45:55.151Z,101248.00
2018-09-24T03:48:33.308Z,101263.00
2018-09-24T03:51:02.347Z,101273.00
2018-09-24T03:53:31.387Z,101270.00
2018-09-24T03:56:00.433Z,101271.00
2018-09-24T03:58:29.498Z,101271.00
2018-09-24T04:00:58.506Z,101273.00
2018-09-24T04:03:27.586Z,101274.00
2018-09-24T04:06:02.028Z,101285.00
2018-09-24T04:08:36.372Z,101294.00
2018-09-24T04:11:10.861Z,101296.00
2018-09-24T04:13:45.338Z,101294.00
2018-09-24T04:16:19.785Z,101298.00
2018-09-24T04:19:26.567Z,101291.00
2018-09-24T04:22:00.986Z,101291.00
2018-09-24T04:24:35.401Z,101305.00
2018-09-24T04:27:15.735Z,101297.00
2018-09-24T04:30:20.438Z,101302.00
2018-09-24T04:32:54.897Z,101301.00
2018-09-24T04:35:29.318Z,101304.00
2018-09-24T04:38:03.568Z,101309.00
2018-09-24T04:40:38.676Z,101313.00
2018-09-24T04:43:13.188Z,101315.00
2018-09-24T04:45:47.553Z,101333.00
2018-09-24T04:48:22.033Z,101337.00
2018-09-24T04:50:56.331Z,101343.00
2018-09-24T04:53:31.467Z,101346.00
2018-09-24T04:56:05.895Z,101356.00
2018-09-24T04:58:51.516Z,101364.00
2018-09-24T05:01:26.074Z,101371.00
2018-09-24T05:04:00.538Z,101364.00
2018-09-24T05:06:34.982Z,101378.00
2018-09-24T05:09:10.541Z,101383.00
2018-09-24T05:11:44.883Z,101380.00
2018-09-24T05:14:19.249Z,101378.00
2018-09-24T05:16:53.661Z,101386.00
2018-09-24T05:19:28.119Z,101411.00
2018-09-24T05:22:02.741Z,101400.00
2018-09-24T05:24:37.065Z,101414.00
2018-09-24T05:27:12.705Z,101389.00
2018-09-24T05:29:47.027Z,101380.00
2018-09-24T05:32:21.493Z,101382.00
2018-09-24T05:34:56.623Z,101397.00
2018-09-24T05:37:31.136Z,101394.00
2018-09-24T05:40:05.635Z,101398.00
2018-09-24T05:42:39.925Z,101409.00
2018-09-24T05:45:14.461Z,101421.00
2018-09-24T05:47:48.993Z,101419.00
2018-09-24T05:50:23.412Z,101438.00
2018-09-24T05:52:57.989Z,101472.00
2018-09-24T05:55:32.257Z,101482.00
2018-09-24T05:58:06.883Z,101483.00
2018-09-24T06:00:41.318Z,101494.00
2018-09-24T06:03:16.615Z,101498.00
2018-09-24T06:05:51.091Z,101494.00
2018-09-24T06:08:25.707Z,101491.00
2018-09-24T06:11:00.124Z,101485.00
2018-09-24T06:13:34.669Z,101479.00
2018-09-24T06:16:09.137Z,101463.00
2018-09-24T06:18:43.643Z,101452.00
2018-09-24T06:21:18.113Z,101462.00
2018-09-24T06:23:52.875Z,101479.00
2018-09-24T06:26:27.254Z,101479.00
2018-09-24T06:29:01.635Z,101481.00
2018-09-24T06:31:35.976Z,101486.00
2018-09-24T06:34:10.405Z,101485.00
2018-09-24T06:36:44.667Z,101484.00
2018-09-24T06:39:19.002Z,101493.00
2018-09-24T06:41:53.433Z,101496.00
2018-09-24T06:47:10.024Z,101513.00
2018-09-24T06:49:45.330Z,101524.00
2018-09-24T06:52:19.815Z,101552.00
2018-09-24T06:54:55.227Z,101566.00
2018-09-24T06:57:29.793Z,101575.00
2018-09-24T07:00:04.030Z,101550.00
2018-09-24T07:02:38.665Z,101545.00
2018-09-24T07:05:13.140Z,101552.00
2018-09-24T07:07:47.457Z,101552.00
2018-09-24T07:10:22.171Z,101558.00
2018-09-24T07:12:56.779Z,101561.00
2018-09-24T07:15:31.293Z,101561.00
2018-09-24T07:18:07.003Z,101572.00
2018-09-24T07:20:44.325Z,101571.00
2018-09-24T07:23:18.836Z,101579.00
2018-09-24T07:25:53.113Z,101583.00
2018-09-24T07:28:28.028Z,101586.00
2018-09-24T07:31:02.482Z,101587.00
2018-09-24T07:33:36.900Z,101591.00
2018-09-24T07:36:11.284Z,101606.00
2018-09-24T07:38:45.751Z,101604.00
2018-09-24T07:41:22.745Z,101607.00
2018-09-24T07:43:57.874Z,101609.00
2018-09-24T07:46:32.215Z,101623.00
2018-09-24T07:49:06.667Z,101623.00
2018-09-24T07:51:41.954Z,101630.00
2018-09-24T07:54:16.525Z,101639.00
2018-09-24T07:56:51.086Z,101646.00
2018-09-24T07:59:25.467Z,101636.00
2018-09-24T08:01:59.847Z,101646.00
2018-09-24T08:04:34.059Z,101660.00
2018-09-24T08:07:08.434Z,101651.00
2018-09-24T08:09:43.091Z,101657.00
2018-09-24T08:12:17.315Z,101672.00
2018-09-24T08:14:52.501Z,101678.00
2018-09-24T08:17:26.994Z,101678.00
2018-09-24T08:20:01.440Z,101671.00
2018-09-24T08:22:36.602Z,101674.00
2018-09-24T08:25:11.042Z,101687.00
2018-09-24T08:27:45.383Z,101693.00
2018-09-24T08:30:20.122Z,101706.00
2018-09-24T08:32:55.098Z,101727.00
2018-09-24T08:35:34.018Z,101746.00
2018-09-24T08:38:10.434Z,101729.00
2018-09-24T08:40:45.218Z,101735.00
2018-09-24T08:43:20.559Z,101735.00
2018-09-24T08:45:55.089Z,101749.00
2018-09-24T08:48:30.036Z,101742.00
2018-09-24T08:51:04.566Z,101735.00
2018-09-24T08:53:39.112Z,101758.00
2018-09-24T08:56:13.460Z,101770.00
2018-09-24T08:58:48.372Z,101755.00
2018-09-24T09:01:23.672Z,101755.00
2018-09-24T09:03:58.262Z,101753.00
2018-09-24T09:06:35.276Z,101745.00
2018-09-24T09:09:14.857Z,101754.00
2018-09-24T09:11:50.385Z,101765.00
2018-09-24T09:14:24.939Z,101783.00
2018-09-24T09:17:00.380Z,101780.00
2018-09-24T09:19:37.955Z,101780.00
2018-09-24T09:22:12.518Z,101776.00
2018-09-24T09:24:47.479Z,101776.00
2018-09-24T09:27:21.952Z,101790.00
2018-09-24T09:29:57.668Z,101784.00
2018-09-24T09:32:32.931Z,101781.00
2018-09-24T09:35:08.633Z,101780.00
2018-09-24T09:37:44.059Z,101781.00
2018-09-24T09:40:18.650Z,101788.00
2018-09-24T09:42:53.657Z,101792.00
2018-09-24T09:45:28.075Z,101786.00
2018-09-24T09:48:02.580Z,101794.00
2018-09-24T09:50:37.062Z,101799.00
2018-09-24T09:53:12.161Z,101800.00
2018-09-24T09:55:47.140Z,101798.00
2018-09-24T09:58:21.822Z,101805.00
2018-09-24T10:00:57.294Z,101803.00
2018-09-24T10:03:32.476Z,101812.00
2018-09-24T10:06:07.606Z,101823.00
2018-09-24T10:08:42.438Z,101812.00
2018-09-24T10:11:18.254Z,101827.00
2018-09-24T10:13:52.621Z,101847.00
2018-09-24T10:16:27.955Z,101848.00
2018-09-24T10:19:02.553Z,101849.00
2018-09-24T10:21:37.813Z,101858.00
2018-09-24T10:24:13.158Z,101846.00
2018-09-24T10:26:48.163Z,101835.00
2018-09-24T10:29:22.648Z,101830.00
2018-09-24T10:31:57.043Z,101831.00
2018-09-24T10:34:32.060Z,101857.00
2018-09-24T10:37:06.464Z,101850.00
2018-09-24T10:39:42.823Z,101853.00
2018-09-24T10:42:17.199Z,101851.00
2018-09-24T10:44:51.722Z,101854.00
2018-09-24T10:47:26.429Z,101851.00
2018-09-24T10:50:00.816Z,101850.00
2018-09-24T10:52:35.257Z,101840.00
2018-09-24T10:55:09.681Z,101862.00
2018-09-24T10:57:44.294Z,101847.00
2018-09-24T11:00:18.925Z,101851.00
2018-09-24T11:02:53.388Z,101852.00
2018-09-24T11:05:27.668Z,101853.00
2018-09-24T11:08:02.425Z,101859.00
2018-09-24T11:10:36.791Z,101872.00
2018-09-24T11:13:11.939Z,101865.00
2018-09-24T11:15:46.432Z,101883.00
2018-09-24T11:18:21.166Z,101876.00
2018-09-24T11:20:55.500Z,101882.00
2018-09-24T11:23:29.956Z,101888.00
2018-09-24T11:26:04.465Z,101876.00
2018-09-24T11:28:38.973Z,101865.00
2018-09-24T11:31:13.370Z,101877.00
2018-09-24T11:33:47.938Z,101871.00
2018-09-24T11:36:22.345Z,101874.00
2018-09-24T11:38:56.817Z,101877.00
2018-09-24T11:41:33.067Z,101878.00
2018-09-24T11:44:07.311Z,101882.00
2018-09-24T11:46:41.749Z,101878.00
2018-09-24T11:49:15.921Z,101880.00
2018-09-24T11:51:50.659Z,101894.00
2018-09-24T11:54:25.275Z,101891.00
2018-09-24T11:56:59.646Z,101893.00
2018-09-24T11:59:34.644Z,101906.00
2018-09-24T12:02:10.287Z,101892.00
2018-09-24T12:04:46.307Z,101887.00
2018-09-24T12:07:20.818Z,101896.00
2018-09-24T12:09:55.919Z,101877.00
2018-09-24T12:12:36.873Z,101882.00
2018-09-24T12:15:11.198Z,101892.00
2018-09-24T12:17:45.891Z,101887.00
2018-09-24T12:20:22.797Z,101883.00
2018-09-24T12:22:58.814Z,101895.00
2018-09-24T12:25:34.346Z,101894.00
2018-09-24T12:28:08.857Z,101891.00
2018-09-24T12:30:43.328Z,101896.00
2018-09-24T12:33:17.759Z,101918.00
2018-09-24T12:35:52.650Z,101912.00
2018-09-24T12:38:28.126Z,101917.00
2018-09-24T12:41:02.623Z,101938.00
2018-09-24T12:43:38.316Z,101914.00
2018-09-24T12:46:13.491Z,101943.00
2018-09-24T12:48:48.077Z,101955.00
2018-09-24T12:51:22.535Z,101965.00
2018-09-24T12:53:56.829Z,101963.00
2018-09-24T12:56:31.744Z,101972.00
2018-09-24T12:59:05.998Z,101960.00
2018-09-24T13:01:40.465Z,101955.00
2018-09-24T13:04:16.073Z,101951.00
2018-09-24T13:06:50.416Z,101950.00
2018-09-24T13:09:24.955Z,101947.00
2018-09-24T13:11:59.319Z,101940.00
2018-09-24T13:14:34.950Z,101939.00
2018-09-24T13:17:09.168Z,101958.00
2018-09-24T13:19:43.666Z,101953.00
2018-09-24T13:22:18.093Z,101950.00
2018-09-24T13:27:44.458Z,101953.00
2018-09-24T13:30:19.305Z,101954.00
2018-09-24T13:32:53.820Z,101945.00
2018-09-24T13:35:28.258Z,101957.00
2018-09-24T13:38:02.545Z,101947.00
2018-09-24T13:40:41.993Z,101951.00
2018-09-24T13:43:17.338Z,101944.00
2018-09-24T13:45:51.902Z,101962.00
2018-09-24T13:48:26.411Z,101956.00
2018-09-24T13:51:00.818Z,101959.00
2018-09-24T13:53:35.183Z,101954.00
2018-09-24T13:56:09.611Z,101947.00
2018-09-24T13:58:43.949Z,101953.00
2018-09-24T14:01:18.389Z,101955.00
2018-09-24T14:03:52.780Z,101959.00
2018-09-24T14:06:27.092Z,101954.00
2018-09-24T14:09:05.034Z,101959.00
2018-09-24T14:11:39.622Z,101972.00
2018-09-24T14:14:14.226Z,101966.00
2018-09-24T14:16:50.544Z,101961.00
2018-09-24T14:19:25.251Z,101978.00
2018-09-24T14:21:59.729Z,101964.00
2018-09-24T14:24:34.234Z,101962.00
2018-09-24T14:27:09.713Z,101965.00
2018-09-24T14:29:43.928Z,101960.00
2018-09-24T14:32:27.496Z,101966.00
2018-09-24T14:35:02.409Z,101964.00
2018-09-24T14:37:36.883Z,101971.00
2018-09-24T14:40:11.255Z,101979.00
2018-09-24T14:42:45.595Z,101992.00
2018-09-24T14:45:19.987Z,101990.00
2018-09-24T14:47:54.386Z,101990.00
2018-09-24T14:50:28.870Z,101995.00
2018-09-24T14:53:03.265Z,102002.00
2018-09-24T14:55:37.622Z,102021.00
2018-09-24T14:58:12.523Z,102007.00
2018-09-24T15:00:48.109Z,102032.00
2018-09-24T15:03:22.730Z,102040.00
2018-09-24T15:05:57.632Z,102083.00
2018-09-24T15:08:32.044Z,102046.00
2018-09-24T15:11:06.589Z,102069.00
2018-09-24T15:13:41.635Z,102032.00
2018-09-24T15:16:16.187Z,102032.00
2018-09-24T15:18:50.674Z,102033.00
2018-09-24T15:21:25.299Z,102024.00
2018-09-24T15:23:59.980Z,102024.00
2018-09-24T15:26:34.332Z,102029.00
2018-09-24T15:29:08.718Z,102027.00
2018-09-24T15:31:43.052Z,102035.00
2018-09-24T15:34:17.577Z,102032.00
2018-09-24T15:36:51.901Z,102023.00
2018-09-24T15:39:26.603Z,102037.00
2018-09-24T15:42:01.066Z,102032.00
2018-09-24T15:44:36.565Z,102039.00
2018-09-24T15:47:12.155Z,102044.00
2018-09-24T15:49:46.829Z,102035.00
2018-09-24T15:52:21.689Z,102048.00
2018-09-24T15:54:55.996Z,102044.00
2018-09-24T15:57:30.504Z,102047.00
2018-09-24T16:00:05.106Z,102052.00
2018-09-24T16:02:39.554Z,102043.00
2018-09-24T16:05:15.141Z,102038.00
2018-09-24T16:07:49.453Z,102056.00
2018-09-24T16:10:23.787Z,102055.00
2018-09-24T16:12:58.317Z,102065.00
2018-09-24T16:15:32.720Z,102065.00
2018-09-24T16:18:08.192Z,102075.00
2018-09-24T16:20:42.672Z,102072.00
2018-09-24T16:23:17.107Z,102071.00
2018-09-24T16:25:51.487Z,102070.00
2018-09-24T16:28:25.894Z,102060.00
2018-09-24T16:31:00.304Z,102097.00
2018-09-24T16:33:34.813Z,102102.00
2018-09-24T16:36:09.339Z,102081.00
2018-09-24T16:38:43.962Z,102072.00
2018-09-24T16:41:18.339Z,102073.00
2018-09-24T16:43:53.173Z,102082.00
2018-09-24T16:46:27.690Z,102083.00
2018-09-24T16:49:02.221Z,102088.00
2018-09-24T16:51:36.771Z,102083.00
2018-09-24T16:54:11.101Z,102087.00
2018-09-24T16:56:45.664Z,102096.00
2018-09-24T16:59:20.089Z,102092.00
2018-09-24T17:01:54.508Z,102098.00
2018-09-24T17:04:29.704Z,102110.00
2018-09-24T17:07:04.130Z,102107.00
2018-09-24T17:09:39.372Z,102115.00
2018-09-24T17:12:13.742Z,102118.00
2018-09-24T17:14:48.218Z,102122.00
2018-09-24T17:17:22.826Z,102127.00
2018-09-24T17:19:57.132Z,102122.00
2018-09-24T17:22:32.626Z,102135.00
2018-09-24T17:25:07.194Z,102135.00
2018-09-24T17:27:41.642Z,102130.00
2018-09-24T17:30:16.783Z,102139.00
2018-09-24T17:32:51.136Z,102131.00
2018-09-24T17:35:26.293Z,102136.00
2018-09-24T17:38:01.524Z,102140.00
2018-09-24T17:40:36.154Z,102147.00
2018-09-24T17:43:23.201Z,102154.00
2018-09-24T17:45:57.851Z,102158.00
2018-09-24T17:48:32.287Z,102163.00
2018-09-24T17:51:06.791Z,102168.00
2018-09-24T17:53:41.358Z,102171.00
2018-09-24T17:56:15.829Z,102170.00
2018-09-24T17:58:50.574Z,102176.00
2018-09-24T18:01:25.013Z,102165.00
2018-09-24T18:03:59.857Z,102173.00
2018-09-24T18:06:34.268Z,102169.00
2018-09-24T18:09:08.982Z,102177.00
2018-09-24T18:11:44.207Z,102176.00
2018-09-24T18:14:18.594Z,102186.00
2018-09-24T18:16:53.035Z,102186.00
2018-09-24T18:19:27.480Z,102200.00
2018-09-24T18:22:02.159Z,102196.00
2018-09-24T18:24:36.717Z,102204.00
2018-09-24T18:27:11.082Z,102200.00
2018-09-24T18:29:45.448Z,102201.00
2018-09-24T18:32:19.850Z,102212.00
2018-09-24T18:34:54.674Z,102214.00
2018-09-24T18:37:30.087Z,102206.00
2018-09-24T18:40:05.647Z,102217.00
2018-09-24T18:42:40.139Z,102221.00
2018-09-24T18:45:14.627Z,102220.00
2018-09-24T18:48:04.417Z,102227.00
2018-09-24T18:50:39.182Z,102223.00
2018-09-24T18:53:13.929Z,102218.00
2018-09-24T18:55:49.101Z,102235.00
2018-09-24T18:58:23.509Z,102229.00
2018-09-24T19:00:59.222Z,102241.00
2018-09-24T19:03:33.674Z,102247.00
2018-09-24T19:06:11.173Z,102244.00
2018-09-24T19:08:46.257Z,102248.00
2018-09-24T19:11:27.785Z,102244.00
2018-09-24T19:13:55.031Z,102253.00
2018-09-24T19:16:29.496Z,102252.00
2018-09-24T19:19:04.210Z,102254.00
2018-09-24T19:21:39.341Z,102265.00
2018-09-24T19:24:15.771Z,102269.00
2018-09-24T19:26:50.600Z,102268.00
2018-09-24T19:29:25.201Z,102274.00
2018-09-24T19:32:00.071Z,102268.00
2018-09-24T19:34:34.783Z,102281.00
2018-09-24T19:37:11.062Z,102286.00
2018-09-24T19:39:51.625Z,102293.00
2018-09-24T19:42:31.674Z,102302.00
2018-09-24T19:45:06.549Z,102302.00
2018-09-24T19:47:41.126Z,102298.00
2018-09-24T19:50:16.770Z,102306.00
2018-09-24T19:52:52.005Z,102311.00
2018-09-24T19:55:26.466Z,102314.00
2018-09-24T19:58:00.894Z,102311.00
2018-09-24T20:00:35.429Z,102312.00
2018-09-24T20:03:09.829Z,102318.00
2018-09-24T20:05:44.567Z,102322.00
2018-09-24T20:08:19.068Z,102321.00
2018-09-24T20:10:53.557Z,102332.00
2018-09-24T20:13:27.906Z,102335.00
2018-09-24T20:16:02.443Z,102333.00
2018-09-24T20:18:37.497Z,102332.00
2018-09-24T20:21:12.102Z,102342.00
2018-09-24T20:23:46.601Z,102345.00
2018-09-24T20:26:21.469Z,102345.00
2018-09-24T20:29:03.088Z,102345.00
2018-09-24T20:31:38.941Z,102351.00
2018-09-24T20:34:13.861Z,102366.00
2018-09-24T20:36:50.631Z,102351.00
2018-09-24T20:39:25.921Z,102358.00
2018-09-24T20:42:00.394Z,102365.00
2018-09-24T20:44:35.730Z,102365.00
2018-09-24T20:47:10.965Z,102370.00
2018-09-24T20:49:45.800Z,102378.00
2018-09-24T20:52:21.657Z,102370.00
2018-09-24T20:54:56.761Z,102382.00
2018-09-24T20:57:31.215Z,102385.00
2018-09-24T21:00:05.618Z,102387.00
2018-09-24T21:02:40.117Z,102392.00
2018-09-24T21:05:14.668Z,102392.00
2018-09-24T21:07:54.407Z,102389.00
2018-09-24T21:10:34.339Z,102391.00
2018-09-24T21:13:08.933Z,102407.00
2018-09-24T21:15:43.469Z,102406.00
2018-09-24T21:18:17.861Z,102402.00
2018-09-24T21:20:52.247Z,102407.00
2018-09-24T21:23:26.916Z,102404.00
2018-09-24T21:26:01.646Z,102405.00
2018-09-24T21:28:36.366Z,102409.00
2018-09-24T21:31:10.850Z,102415.00
2018-09-24T21:33:45.214Z,102412.00
2018-09-24T21:36:19.920Z,102421.00
2018-09-24T21:38:56.231Z,102421.00
2018-09-24T21:41:30.876Z,102424.00
2018-09-24T21:44:05.450Z,102430.00
2018-09-24T21:46:40.201Z,102433.00
2018-09-24T21:49:14.989Z,102436.00
2018-09-24T21:51:49.724Z,102442.00
2018-09-24T21:54:24.807Z,102443.00
2018-09-24T21:56:59.276Z,102444.00
2018-09-24T21:59:33.735Z,102446.00
2018-09-24T22:02:08.279Z,102454.00
2018-09-24T22:04:42.896Z,102452.00
2018-09-24T22:07:17.353Z,102455.00
2018-09-24T22:09:52.019Z,102452.00
2018-09-24T22:12:26.358Z,102459.00
2018-09-24T22:15:00.789Z,102462.00
2018-09-24T22:17:36.694Z,102456.00
2018-09-24T22:20:11.162Z,102459.00
2018-09-24T22:22:45.611Z,102475.00
2018-09-24T22:25:20.082Z,102465.00
2018-09-24T22:27:54.692Z,102482.00
2018-09-24T22:30:29.392Z,102479.00
2018-09-24T22:33:03.838Z,102473.00
2018-09-24T22:35:38.767Z,102482.00
2018-09-24T22:38:13.462Z,102486.00
2018-09-24T22:40:47.903Z,102495.00
2018-09-24T22:43:31.509Z,102491.00
2018-09-24T22:46:06.094Z,102498.00
2018-09-24T22:48:40.757Z,102495.00
2018-09-24T22:51:15.285Z,102497.00
2018-09-24T22:53:49.693Z,102501.00
2018-09-24T22:56:24.242Z,102510.00
2018-09-24T22:58:58.756Z,102502.00
2018-09-24T23:01:42.755Z,102499.00
2018-09-24T23:04:17.393Z,102507.00
2018-09-24T23:06:51.791Z,102510.00
2018-09-24T23:09:26.195Z,102511.00
2018-09-24T23:12:00.706Z,102515.00
2018-09-24T23:14:39.648Z,102329.00
2018-09-24T23:17:16.245Z,102520.00
2018-09-24T23:19:51.144Z,102520.00
2018-09-24T23:22:25.706Z,102517.00
2018-09-24T23:25:14.130Z,102519.00
2018-09-24T23:27:48.952Z,102513.00
2018-09-24T23:30:23.607Z,102519.00
2018-09-24T23:32:58.121Z,102515.00
2018-09-24T23:35:32.389Z,102517.00
2018-09-24T23:38:06.889Z,102515.00
2018-09-24T23:40:41.394Z,102515.00
2018-09-24T23:43:15.857Z,102512.00
2018-09-24T23:45:50.486Z,102520.00
2018-09-24T23:48:24.867Z,102521.00
2018-09-24T23:50:59.216Z,102520.00
2018-09-24T23:53:33.789Z,102525.00
2018-09-24T23:56:08.175Z,102521.00
2018-09-24T23:58:42.508Z,102524.00
